Time;durP1;ratioP1;P1;durP2;ratioP2;P2;SDS_P1;SDS_P2;PMS_P1;PMS_P2;Temp;Humidity;BMP_temperature;BMP_pressure;BME280_temperature;BME280_humidity;BME280_pressure;Samples;Min_cycle;Max_cycle;Signal;HPM_P1;HPM_P2
2023/03/29 00:00:34;;;;;;;;;;;;;;;8.30;54.26;100277.59;1085017;54;20647;-78
2023/03/29 00:01:36;;;;;;;;;;;;;;;8.19;54.68;100281.16;1085435;39;20463;-78
2023/03/29 00:02:39;;;;;;;;;;;;;;;8.28;54.38;100269.75;1087119;39;20344;-78
2023/03/29 00:03:43;;;;;;;;;;;;;;;8.34;54.55;100280.88;1085227;54;19951;-78
2023/03/29 00:04:46;;;;;;;;;;;;;;;8.33;54.17;100271.19;1085853;54;19973;-81
2023/03/29 00:05:47;;;;;;;;;;;;;;;8.47;53.32;100267.38;1085921;54;19950;-80
2023/03/29 00:06:51;;;;;;;;;;;;;;;8.47;53.90;100265.63;1085950;54;20527;-79
2023/03/29 00:08:00;;;;;;;;;;;;;;;8.39;54.04;100268.88;1085752;54;19950;-78
2023/03/29 00:09:07;;;;;;;;;;;;;;;8.37;54.30;100262.81;1085806;54;20002;-78
2023/03/29 00:10:09;;;;;;;;;;;;;;;8.43;54.03;100258.81;1086054;54;19981;-80
2023/03/29 00:11:13;;;;;;;;;;;;;;;8.42;54.19;100262.44;1085705;54;19942;-79
2023/03/29 00:12:14;;;;;;;;;;;;;;;8.43;54.44;100251.66;1085627;54;19962;-79
2023/03/29 00:13:18;;;;;;;;;;;;;;;8.45;54.34;100259.53;1086051;54;19942;-80
2023/03/29 00:14:19;;;;;;;;;;;;;;;8.45;54.46;100256.88;1085535;54;19965;-79
2023/03/29 00:15:26;;;;;;;;;;;;;;;8.50;53.86;100248.53;1085804;54;19942;-79
2023/03/29 00:16:27;;;;;;;;;;;;;;;8.49;54.18;100247.69;1085675;54;19971;-80
2023/03/29 00:17:31;;;;;;;;;;;;;;;8.56;53.50;100248.00;1085430;54;20074;-79
2023/03/29 00:18:32;;;;;;;;;;;;;;;8.60;53.45;100248.63;1086043;39;20361;-79
2023/03/29 00:19:36;;;;;;;;;;;;;;;8.67;53.21;100244.47;1086559;39;20393;-79
2023/03/29 00:20:37;;;;;;;;;;;;;;;8.72;53.07;100247.59;1086477;54;19943;-79
2023/03/29 00:21:41;;;;;;;;;;;;;;;8.75;53.05;100255.34;1086487;54;19951;-78
2023/03/29 00:22:42;;;;;;;;;;;;;;;8.77;52.71;100252.53;1086627;54;19943;-77
2023/03/29 00:23:46;;;;;;;;;;;;;;;8.80;52.55;100246.97;1086462;54;19954;-80
2023/03/29 00:24:47;;;;;;;;;;;;;;;8.79;53.06;100250.59;1086242;54;19947;-79
2023/03/29 00:25:51;;;;;;;;;;;;;;;8.80;52.57;100242.47;1086081;54;20018;-79
2023/03/29 00:26:52;;;;;;;;;;;;;;;8.65;53.30;100244.56;1085606;54;19950;-79
2023/03/29 00:27:56;;;;;;;;;;;;;;;8.69;53.15;100243.38;1085922;54;19950;-78
2023/03/29 00:28:57;;;;;;;;;;;;;;;8.64;53.40;100247.38;1085700;54;19957;-80
2023/03/29 00:30:02;;;;;;;;;;;;;;;8.61;53.20;100250.28;1086649;39;20393;-79
2023/03/29 00:31:11;;;;;;;;;;;;;;;8.68;53.02;100246.16;1086017;54;19950;-79
2023/03/29 00:32:12;;;;;;;;;;;;;;;8.71;52.73;100249.41;1086094;54;19946;-79
2023/03/29 00:33:17;;;;;;;;;;;;;;;8.70;52.76;100254.84;1086526;54;19947;-78
2023/03/29 00:34:19;;;;;;;;;;;;;;;8.64;53.22;100253.56;1086511;39;20654;-78
2023/03/29 00:35:23;;;;;;;;;;;;;;;8.58;53.55;100254.06;1086199;54;20944;-79
2023/03/29 00:36:24;;;;;;;;;;;;;;;8.56;53.37;100251.53;1086403;54;19950;-79
2023/03/29 00:37:28;;;;;;;;;;;;;;;8.54;53.42;100248.16;1086302;54;20552;-79
2023/03/29 00:38:30;;;;;;;;;;;;;;;8.54;53.39;100253.47;1086379;54;20547;-78
2023/03/29 00:39:34;;;;;;;;;;;;;;;8.55;53.59;100244.50;1086396;54;19942;-78
2023/03/29 00:40:40;;;;;;;;;;;;;;;8.55;53.63;100247.19;1086361;54;19947;-78
2023/03/29 00:41:45;;;;;;;;;;;;;;;8.57;53.39;100253.22;1086368;54;19950;-78
2023/03/29 00:42:46;;;;;;;;;;;;;;;8.60;53.34;100245.97;1086396;54;21567;-79
2023/03/29 00:43:58;;;;;;;;;;;;;;;8.58;53.51;100246.06;1086586;54;19962;-79
2023/03/29 00:45:00;;;;;;;;;;;;;;;8.59;53.59;100242.44;1087386;54;19950;-80
2023/03/29 00:46:04;;;;;;;;;;;;;;;8.47;54.50;100246.97;1086860;54;19953;-79
2023/03/29 00:47:08;;;;;;;;;;;;;;;8.43;54.44;100250.81;1086911;54;19949;-79
2023/03/29 00:48:14;;;;;;;;;;;;;;;8.45;54.66;100248.03;1086841;54;20629;-79
2023/03/29 00:49:15;;;;;;;;;;;;;;;8.42;54.51;100247.31;1086738;54;19942;-81
2023/03/29 00:50:21;;;;;;;;;;;;;;;8.48;54.15;100255.78;1087043;54;19954;-79
2023/03/29 00:51:23;;;;;;;;;;;;;;;8.50;54.06;100249.34;1086886;54;19958;-80
2023/03/29 00:52:29;;;;;;;;;;;;;;;8.51;54.36;100240.41;1086751;54;20532;-79
2023/03/29 00:53:33;;;;;;;;;;;;;;;8.49;54.25;100242.38;1086998;54;19954;-79
2023/03/29 00:54:38;;;;;;;;;;;;;;;8.46;54.51;100239.91;1086500;54;20620;-80
2023/03/29 00:55:44;;;;;;;;;;;;;;;8.51;54.21;100237.72;1086943;54;19943;-79
2023/03/29 00:56:48;;;;;;;;;;;;;;;8.54;54.16;100231.31;1087136;39;20447;-79
2023/03/29 00:57:54;;;;;;;;;;;;;;;8.49;54.49;100223.72;1086697;54;19950;-79
2023/03/29 00:58:57;;;;;;;;;;;;;;;8.49;54.72;100222.84;1086898;54;19969;-79
2023/03/29 01:00:03;;;;;;;;;;;;;;;8.44;55.11;100223.19;1087039;54;19951;-79
2023/03/29 01:01:11;;;;;;;;;;;;;;;8.51;54.50;100218.25;1086720;54;19946;-80
2023/03/29 01:02:20;;;;;;;;;;;;;;;8.45;55.05;100218.72;1086843;54;19943;-79
2023/03/29 01:03:28;;;;;;;;;;;;;;;8.50;54.58;100212.06;1086428;54;19957;-80
2023/03/29 01:04:31;;;;;;;;;;;;;;;8.51;54.37;100215.59;1086894;54;19981;-79
2023/03/29 01:05:38;;;;;;;;;;;;;;;8.54;54.35;100205.50;1087545;39;20712;-79
2023/03/29 01:06:42;;;;;;;;;;;;;;;8.56;54.49;100205.38;1087238;54;19938;-79
2023/03/29 01:07:52;;;;;;;;;;;;;;;8.55;54.42;100204.53;1087553;54;19939;-80
2023/03/29 01:08:55;;;;;;;;;;;;;;;8.58;54.00;100193.63;1090712;39;20333;-79
2023/03/29 01:10:02;;;;;;;;;;;;;;;8.58;54.18;100187.44;1087986;54;19951;-79
2023/03/29 01:11:05;;;;;;;;;;;;;;;8.60;54.34;100192.66;1089194;46;19946;-80
2023/03/29 01:12:15;;;;;;;;;;;;;;;8.57;54.49;100183.09;1088061;54;19972;-78
2023/03/29 01:13:19;;;;;;;;;;;;;;;8.60;54.38;100187.34;1087986;54;20938;-79
2023/03/29 01:14:38;;;;;;;;;;;;;;;8.63;54.30;100176.41;1088091;54;19942;-79
2023/03/29 01:15:40;;;;;;;;;;;;;;;8.64;53.99;100183.41;1088085;54;19939;-78
2023/03/29 01:16:47;;;;;;;;;;;;;;;8.60;54.47;100176.69;1088122;54;19939;-79
2023/03/29 01:17:52;;;;;;;;;;;;;;;8.61;54.36;100178.34;1090580;39;20547;-79
2023/03/29 01:18:57;;;;;;;;;;;;;;;8.56;54.65;100176.94;1088953;46;20006;-79
2023/03/29 01:20:06;;;;;;;;;;;;;;;8.55;54.52;100163.72;1087894;54;19946;-79
2023/03/29 01:21:19;;;;;;;;;;;;;;;8.52;54.66;100169.31;1087845;54;19958;-79
2023/03/29 01:22:24;;;;;;;;;;;;;;;8.49;54.94;100170.44;1087757;54;19950;-80
2023/03/29 01:23:37;;;;;;;;;;;;;;;8.42;55.44;100174.50;1087884;46;19945;-79
2023/03/29 01:25:00;;;;;;;;;;;;;;;8.42;55.17;100164.72;1090161;46;19947;-79
2023/03/29 01:26:08;;;;;;;;;;;;;;;8.49;55.09;100166.91;1087623;54;19947;-79
2023/03/29 01:27:17;;;;;;;;;;;;;;;8.51;54.74;100159.63;1087450;54;19955;-80
2023/03/29 01:28:23;;;;;;;;;;;;;;;8.43;55.39;100158.44;1087443;54;19947;-79
2023/03/29 01:29:29;;;;;;;;;;;;;;;8.36;56.12;100161.72;1088465;46;19942;-80
2023/03/29 01:30:32;;;;;;;;;;;;;;;8.37;55.88;100163.41;1087645;54;19951;-79
2023/03/29 01:31:39;;;;;;;;;;;;;;;8.41;55.55;100154.19;1087677;54;19961;-80
2023/03/29 01:32:50;;;;;;;;;;;;;;;8.21;56.69;100164.69;1087109;47;19939;-79
2023/03/29 01:33:57;;;;;;;;;;;;;;;8.15;56.97;100159.84;1086954;47;19950;-79
2023/03/29 01:34:59;;;;;;;;;;;;;;;8.26;56.07;100154.50;1086945;54;19945;-79
2023/03/29 01:36:06;;;;;;;;;;;;;;;8.23;56.67;100154.72;1086059;54;19951;-79
2023/03/29 01:37:10;;;;;;;;;;;;;;;8.14;57.13;100149.34;1086315;54;19970;-79
2023/03/29 01:38:17;;;;;;;;;;;;;;;8.00;57.61;100150.47;1086460;54;19962;-80
2023/03/29 01:39:19;;;;;;;;;;;;;;;8.06;57.34;100152.63;1086242;54;19974;-79
2023/03/29 01:40:23;;;;;;;;;;;;;;;8.08;57.56;100156.00;1086261;54;19942;-80
2023/03/29 01:41:29;;;;;;;;;;;;;;;8.06;57.33;100152.63;1086112;54;19950;-80
2023/03/29 01:42:37;;;;;;;;;;;;;;;7.94;58.52;100149.97;1086152;54;19955;-79
2023/03/29 01:43:44;;;;;;;;;;;;;;;7.94;58.33;100149.97;1085867;54;19947;-81
2023/03/29 01:44:52;;;;;;;;;;;;;;;7.92;58.66;100149.28;1086042;54;20014;-80
2023/03/29 01:45:59;;;;;;;;;;;;;;;7.93;58.49;100147.47;1086247;54;19954;-79
2023/03/29 01:47:08;;;;;;;;;;;;;;;7.97;58.23;100139.09;1086248;54;20434;-79
2023/03/29 01:48:12;;;;;;;;;;;;;;;7.85;59.02;100141.91;1086276;54;19942;-80
2023/03/29 01:49:18;;;;;;;;;;;;;;;7.83;59.25;100136.72;1086129;54;19957;-80
2023/03/29 01:50:28;;;;;;;;;;;;;;;7.88;58.82;100142.50;1085758;54;19951;-80
2023/03/29 01:51:33;;;;;;;;;;;;;;;7.95;58.60;100141.03;1085850;54;20539;-80
2023/03/29 01:52:39;;;;;;;;;;;;;;;7.90;59.18;100137.06;1085663;54;19958;-80
2023/03/29 01:53:44;;;;;;;;;;;;;;;7.91;59.17;100139.63;1085715;54;19950;-79
2023/03/29 01:54:51;;;;;;;;;;;;;;;7.83;59.43;100136.72;1085493;54;20004;-80
2023/03/29 01:55:54;;;;;;;;;;;;;;;7.92;59.08;100140.44;1085937;54;19939;-79
2023/03/29 01:56:59;;;;;;;;;;;;;;;7.96;58.96;100131.25;1085890;54;19946;-79
2023/03/29 01:58:02;;;;;;;;;;;;;;;7.97;59.07;100133.78;1085647;54;19946;-79
2023/03/29 01:59:13;;;;;;;;;;;;;;;7.95;59.01;100127.72;1085817;54;19946;-79
2023/03/29 02:00:15;;;;;;;;;;;;;;;7.93;59.51;100128.81;1085933;54;19981;-78
2023/03/29 02:01:21;;;;;;;;;;;;;;;7.89;59.38;100136.22;1085836;54;19958;-79
2023/03/29 02:02:23;;;;;;;;;;;;;;;7.91;59.25;100128.97;1085612;54;19970;-80
2023/03/29 02:03:29;;;;;;;;;;;;;;;7.93;59.09;100126.16;1086021;54;19951;-79
2023/03/29 02:04:33;;;;;;;;;;;;;;;8.01;58.81;100141.53;1085770;54;19951;-79
2023/03/29 02:05:38;;;;;;;;;;;;;;;8.00;58.96;100131.84;1085631;54;19951;-80
2023/03/29 02:06:40;;;;;;;;;;;;;;;7.87;59.78;100132.84;1085870;47;19943;-79
2023/03/29 02:07:45;;;;;;;;;;;;;;;7.91;59.39;100134.28;1086037;54;19957;-79
2023/03/29 02:08:47;;;;;;;;;;;;;;;7.86;59.74;100141.78;1087669;39;20487;-79
2023/03/29 02:09:52;;;;;;;;;;;;;;;7.84;59.75;100141.06;1085811;54;19951;-79
2023/03/29 02:10:53;;;;;;;;;;;;;;;7.81;59.91;100138.66;1085467;54;19962;-79
2023/03/29 02:11:58;;;;;;;;;;;;;;;7.80;60.09;100139.63;1085525;54;19950;-79
2023/03/29 02:12:59;;;;;;;;;;;;;;;7.89;59.77;100135.34;1085563;54;19954;-79
2023/03/29 02:14:04;;;;;;;;;;;;;;;7.87;59.59;100140.81;1085627;54;19950;-79
2023/03/29 02:15:11;;;;;;;;;;;;;;;7.90;59.44;100139.72;1089615;39;20745;-79
2023/03/29 02:16:15;;;;;;;;;;;;;;;7.95;59.08;100134.88;1086556;54;19974;-80
2023/03/29 02:17:18;;;;;;;;;;;;;;;8.01;58.99;100129.03;1086698;54;19938;-80
2023/03/29 02:18:23;;;;;;;;;;;;;;;8.02;59.10;100119.25;1086645;54;19942;-79
2023/03/29 02:19:24;;;;;;;;;;;;;;;7.91;59.67;100123.63;1086480;54;19950;-80
2023/03/29 02:20:30;;;;;;;;;;;;;;;7.94;59.34;100118.03;1086672;54;19943;-79
2023/03/29 02:21:36;;;;;;;;;;;;;;;7.97;59.31;100115.13;1086618;54;19942;-79
2023/03/29 02:22:43;;;;;;;;;;;;;;;8.03;59.00;100120.94;1086620;54;20797;-79
2023/03/29 02:23:45;;;;;;;;;;;;;;;7.97;59.26;100116.97;1086768;54;19942;-79
2023/03/29 02:24:50;;;;;;;;;;;;;;;8.00;59.04;100110.53;1086401;54;19962;-78
2023/03/29 02:25:52;;;;;;;;;;;;;;;7.94;59.19;100118.03;1086448;54;19947;-79
2023/03/29 02:26:56;;;;;;;;;;;;;;;7.97;59.29;100112.47;1086010;54;20813;-79
2023/03/29 02:27:58;;;;;;;;;;;;;;;7.95;59.23;100117.06;1087002;39;21581;-79
2023/03/29 02:29:02;;;;;;;;;;;;;;;7.91;59.34;100126.31;1086011;54;19957;-79
2023/03/29 02:30:03;;;;;;;;;;;;;;;7.91;59.42;100126.31;1086840;39;20452;-79
2023/03/29 02:31:14;;;;;;;;;;;;;;;7.97;59.04;100120.47;1085926;54;20010;-80
2023/03/29 02:32:20;;;;;;;;;;;;;;;7.97;59.01;100117.81;1085707;54;19966;-79
2023/03/29 02:33:27;;;;;;;;;;;;;;;7.92;59.32;100120.00;1085724;54;20026;-79
2023/03/29 02:34:29;;;;;;;;;;;;;;;7.93;59.20;100118.19;1085825;54;19966;-80
2023/03/29 02:35:35;;;;;;;;;;;;;;;7.94;59.12;100122.53;1085644;54;19951;-82
2023/03/29 02:36:40;;;;;;;;;;;;;;;7.83;59.66;100120.75;1087390;31;20598;-79
2023/03/29 02:37:48;;;;;;;;;;;;;;;7.81;60.00;100118.19;1085919;54;19957;-79
2023/03/29 02:38:50;;;;;;;;;;;;;;;7.78;59.75;100117.63;1086516;39;20797;-79
2023/03/29 02:39:54;;;;;;;;;;;;;;;7.68;60.44;100108.69;1085407;54;20568;-79
2023/03/29 02:40:57;;;;;;;;;;;;;;;7.67;60.37;100105.19;1085421;54;19973;-79
2023/03/29 02:42:02;;;;;;;;;;;;;;;7.67;60.76;100104.31;1085498;54;19951;-80
2023/03/29 02:43:05;;;;;;;;;;;;;;;7.64;60.89;100100.97;1085388;54;19951;-79
2023/03/29 02:44:12;;;;;;;;;;;;;;;7.68;60.67;100101.56;1085439;54;19946;-79
2023/03/29 02:45:16;;;;;;;;;;;;;;;7.74;60.25;100101.06;1085370;54;19942;-79
2023/03/29 02:46:22;;;;;;;;;;;;;;;7.79;60.25;100103.34;1085497;54;19955;-79
2023/03/29 02:47:25;;;;;;;;;;;;;;;7.84;59.79;100100.31;1086280;39;20550;-78
2023/03/29 02:48:30;;;;;;;;;;;;;;;7.85;59.95;100089.50;1085680;54;19946;-79
2023/03/29 02:49:31;;;;;;;;;;;;;;;7.84;59.86;100097.63;1086100;54;19954;-79
2023/03/29 02:50:44;;;;;;;;;;;;;;;7.89;59.53;100088.31;1087420;54;19926;-79
2023/03/29 02:51:48;;;;;;;;;;;;;;;7.76;60.22;100092.94;1088347;47;19942;-80
2023/03/29 02:52:55;;;;;;;;;;;;;;;7.69;60.57;100091.75;1087630;54;19950;-79
2023/03/29 02:54:00;;;;;;;;;;;;;;;7.76;60.24;100087.63;1087926;39;20198;-79
2023/03/29 02:55:05;;;;;;;;;;;;;;;7.75;60.13;100085.91;1087261;47;19950;-80
2023/03/29 02:56:08;;;;;;;;;;;;;;;7.76;60.23;100075.16;1088060;39;20675;-79
2023/03/29 02:57:12;;;;;;;;;;;;;;;7.83;60.10;100072.00;1087400;54;19950;-78
2023/03/29 02:58:14;;;;;;;;;;;;;;;7.82;59.73;100073.81;1087477;54;19942;-79
2023/03/29 02:59:19;;;;;;;;;;;;;;;7.70;60.62;100080.13;1086993;54;19962;-78
2023/03/29 03:00:22;;;;;;;;;;;;;;;7.67;60.48;100077.72;1085866;54;19970;-79
2023/03/29 03:01:28;;;;;;;;;;;;;;;7.65;60.53;100069.88;1085556;54;20003;-79
2023/03/29 03:02:29;;;;;;;;;;;;;;;7.79;60.02;100068.75;1085711;54;19946;-79
2023/03/29 03:03:34;;;;;;;;;;;;;;;7.80;59.82;100067.78;1085785;39;20749;-79
2023/03/29 03:04:35;;;;;;;;;;;;;;;7.78;60.04;100059.06;1086049;54;19970;-78
2023/03/29 03:05:39;;;;;;;;;;;;;;;7.75;60.37;100057.50;1086188;54;20517;-78
2023/03/29 03:06:43;;;;;;;;;;;;;;;7.81;60.09;100061.47;1086499;54;20002;-79
2023/03/29 03:07:44;;;;;;;;;;;;;;;7.79;60.15;100063.41;1085873;54;19951;-79
2023/03/29 03:08:48;;;;;;;;;;;;;;;7.74;60.22;100058.47;1086329;54;19942;-78
2023/03/29 03:09:50;;;;;;;;;;;;;;;7.69;60.53;100063.34;1086984;39;20346;-80
2023/03/29 03:10:54;;;;;;;;;;;;;;;7.69;60.70;100066.00;1086064;54;19946;-78
2023/03/29 03:11:55;;;;;;;;;;;;;;;7.64;61.03;100066.38;1086119;54;19950;-78
2023/03/29 03:12:59;;;;;;;;;;;;;;;7.72;60.54;100063.06;1087643;39;20457;-78
2023/03/29 03:14:00;;;;;;;;;;;;;;;7.60;61.03;100062.25;1086128;54;20535;-79
2023/03/29 03:15:04;;;;;;;;;;;;;;;7.65;60.90;100054.75;1086428;54;19965;-78
2023/03/29 03:16:06;;;;;;;;;;;;;;;7.60;60.98;100050.78;1086232;54;19950;-78
2023/03/29 03:17:12;;;;;;;;;;;;;;;7.68;60.81;100052.81;1086208;54;19981;-79
2023/03/29 03:18:14;;;;;;;;;;;;;;;7.70;60.43;100045.53;1086218;54;19965;-78
2023/03/29 03:19:18;;;;;;;;;;;;;;;7.71;60.57;100047.25;1086668;39;20444;-79
2023/03/29 03:20:21;;;;;;;;;;;;;;;7.76;60.22;100047.69;1086376;54;19946;-79
2023/03/29 03:21:27;;;;;;;;;;;;;;;7.75;60.47;100048.66;1086171;54;19947;-78
2023/03/29 03:22:28;;;;;;;;;;;;;;;7.72;60.64;100046.28;1086264;54;19951;-78
2023/03/29 03:23:31;;;;;;;;;;;;;;;7.75;60.52;100052.19;1087142;39;20850;-79
2023/03/29 03:24:33;;;;;;;;;;;;;;;7.70;60.67;100051.69;1086726;54;19973;-78
2023/03/29 03:25:37;;;;;;;;;;;;;;;7.55;61.08;100042.31;1086864;54;19943;-78
2023/03/29 03:26:38;;;;;;;;;;;;;;;7.56;60.85;100047.50;1086814;54;19950;-78
2023/03/29 03:27:42;;;;;;;;;;;;;;;7.66;60.79;100052.94;1086565;54;19942;-80
2023/03/29 03:28:44;;;;;;;;;;;;;;;7.69;60.62;100051.84;1086617;39;20674;-80
2023/03/29 03:29:48;;;;;;;;;;;;;;;7.61;60.98;100037.34;1086548;54;20018;-79
2023/03/29 03:30:49;;;;;;;;;;;;;;;7.65;60.93;100045.94;1086290;54;19998;-80
2023/03/29 03:31:53;;;;;;;;;;;;;;;7.64;60.92;100047.75;1086510;54;19965;-79
2023/03/29 03:32:56;;;;;;;;;;;;;;;7.62;61.24;100040.84;1086322;54;19950;-78
2023/03/29 03:34:00;;;;;;;;;;;;;;;7.70;60.80;100035.72;1086240;54;19995;-79
2023/03/29 03:35:01;;;;;;;;;;;;;;;7.76;60.54;100045.03;1086370;46;19946;-79
2023/03/29 03:36:06;;;;;;;;;;;;;;;7.79;60.04;100036.81;1085739;54;20014;-79
2023/03/29 03:37:07;;;;;;;;;;;;;;;7.77;60.28;100041.41;1086089;39;20464;-79
2023/03/29 03:38:10;;;;;;;;;;;;;;;7.78;60.30;100043.09;1085769;54;19950;-78
2023/03/29 03:39:12;;;;;;;;;;;;;;;7.68;60.95;100043.03;1086545;39;20661;-78
2023/03/29 03:40:16;;;;;;;;;;;;;;;7.64;61.03;100053.06;1085840;54;19950;-79
2023/03/29 03:41:17;;;;;;;;;;;;;;;7.63;60.72;100046.06;1085880;39;20374;-79
2023/03/29 03:42:21;;;;;;;;;;;;;;;7.69;60.80;100044.72;1085983;54;19962;-79
2023/03/29 03:43:22;;;;;;;;;;;;;;;7.57;61.17;100041.22;1085754;54;19954;-79
2023/03/29 03:44:26;;;;;;;;;;;;;;;7.59;61.28;100043.78;1085746;54;19981;-78
2023/03/29 03:45:30;;;;;;;;;;;;;;;7.56;61.30;100052.84;1086213;54;19985;-78
2023/03/29 03:46:31;;;;;;;;;;;;;;;7.58;61.10;100047.41;1086095;54;19969;-78
2023/03/29 03:47:36;;;;;;;;;;;;;;;7.52;61.69;100051.41;1086765;54;19973;-77
2023/03/29 03:48:39;;;;;;;;;;;;;;;7.52;61.35;100051.41;1087505;54;19943;-80
2023/03/29 03:49:43;;;;;;;;;;;;;;;7.60;61.19;100048.13;1087551;46;20041;-78
2023/03/29 03:50:47;;;;;;;;;;;;;;;7.67;60.99;100048.44;1088663;46;19947;-78
2023/03/29 03:51:51;;;;;;;;;;;;;;;7.68;60.92;100051.00;1087439;54;19981;-79
2023/03/29 03:52:53;;;;;;;;;;;;;;;7.71;60.92;100050.72;1087310;46;19995;-79
2023/03/29 03:53:56;;;;;;;;;;;;;;;7.70;61.04;100045.53;1085774;54;19946;-79
2023/03/29 03:54:57;;;;;;;;;;;;;;;7.69;61.10;100046.50;1085183;54;19966;-79
2023/03/29 03:56:07;;;;;;;;;;;;;;;7.59;61.48;100041.94;1083625;54;19951;-78
2023/03/29 03:57:08;;;;;;;;;;;;;;;7.61;61.16;100048.00;1085407;54;20034;-79
2023/03/29 03:58:12;;;;;;;;;;;;;;;7.71;60.90;100048.06;1084976;54;19981;-79
2023/03/29 03:59:14;;;;;;;;;;;;;;;7.73;61.02;100047.97;1084572;54;19947;-78
2023/03/29 04:00:22;;;;;;;;;;;;;;;7.79;60.87;100039.47;1084957;54;19957;-80
2023/03/29 04:01:23;;;;;;;;;;;;;;;7.71;60.97;100048.06;1085307;54;20006;-79
2023/03/29 04:02:27;;;;;;;;;;;;;;;7.76;61.14;100045.03;1085235;54;19950;-79
2023/03/29 04:03:28;;;;;;;;;;;;;;;7.73;61.02;100040.81;1084557;54;19954;-79
2023/03/29 04:04:38;;;;;;;;;;;;;;;7.68;61.08;100047.47;1086184;54;20746;-80
2023/03/29 04:05:39;;;;;;;;;;;;;;;7.77;60.92;100047.59;1086900;54;19950;-79
2023/03/29 04:06:43;;;;;;;;;;;;;;;7.65;61.28;100049.41;1086836;54;19946;-80
2023/03/29 04:07:45;;;;;;;;;;;;;;;7.63;61.45;100054.03;1087158;54;19947;-80
2023/03/29 04:08:49;;;;;;;;;;;;;;;7.64;61.52;100053.06;1087084;54;19943;-80
2023/03/29 04:09:51;;;;;;;;;;;;;;;7.62;61.85;100048.81;1086648;54;19950;-79
2023/03/29 04:10:57;;;;;;;;;;;;;;;7.64;61.84;100046.91;1086129;54;19954;-79
2023/03/29 04:11:58;;;;;;;;;;;;;;;7.67;61.28;100043.13;1086568;54;19958;-79
2023/03/29 04:13:03;;;;;;;;;;;;;;;7.69;61.42;100044.72;1086694;54;19954;-79
2023/03/29 04:14:04;;;;;;;;;;;;;;;7.64;61.41;100044.22;1086492;54;19942;-79
2023/03/29 04:15:09;;;;;;;;;;;;;;;7.62;61.68;100038.19;1086263;54;20414;-79
2023/03/29 04:16:12;;;;;;;;;;;;;;;7.65;61.98;100043.25;1086816;54;19950;-79
2023/03/29 04:17:16;;;;;;;;;;;;;;;7.74;61.54;100039.84;1087126;54;20030;-79
2023/03/29 04:18:17;;;;;;;;;;;;;;;7.77;61.34;100038.75;1086768;54;19946;-79
2023/03/29 04:19:21;;;;;;;;;;;;;;;7.72;61.82;100039.13;1086804;54;19951;-79
2023/03/29 04:20:25;;;;;;;;;;;;;;;7.71;62.29;100037.44;1086553;54;19974;-79
2023/03/29 04:21:29;;;;;;;;;;;;;;;7.70;62.27;100050.88;1086652;46;19954;-80
2023/03/29 04:22:31;;;;;;;;;;;;;;;7.72;61.97;100040.94;1086709;54;19951;-79
2023/03/29 04:23:37;;;;;;;;;;;;;;;7.75;61.94;100046.00;1086821;54;19950;-80
2023/03/29 04:24:38;;;;;;;;;;;;;;;7.78;61.90;100043.97;1086521;54;19950;-79
2023/03/29 04:25:42;;;;;;;;;;;;;;;7.79;61.74;100050.13;1086792;54;19962;-79
2023/03/29 04:26:49;;;;;;;;;;;;;;;7.88;61.41;100053.84;1086954;54;19943;-80
2023/03/29 04:27:53;;;;;;;;;;;;;;;7.83;61.86;100059.53;1087127;46;19943;-79
2023/03/29 04:28:55;;;;;;;;;;;;;;;7.86;61.50;100050.44;1086713;54;19969;-79
2023/03/29 04:29:59;;;;;;;;;;;;;;;7.72;61.92;100057.75;1087286;31;20598;-79
2023/03/29 04:31:04;;;;;;;;;;;;;;;7.72;61.95;100060.41;1086681;54;19950;-80
2023/03/29 04:32:05;;;;;;;;;;;;;;;7.70;62.41;100061.50;1086504;54;19974;-80
2023/03/29 04:33:09;;;;;;;;;;;;;;;7.77;62.01;100058.22;1086734;54;19957;-79
2023/03/29 04:34:10;;;;;;;;;;;;;;;7.74;62.44;100065.63;1086604;54;19934;-80
2023/03/29 04:35:15;;;;;;;;;;;;;;;7.75;62.22;100062.84;1087150;54;19943;-79
2023/03/29 04:36:20;;;;;;;;;;;;;;;7.76;62.42;100072.50;1087299;54;19950;-80
2023/03/29 04:37:24;;;;;;;;;;;;;;;7.80;62.05;100067.78;1088834;31;20523;-78
2023/03/29 04:38:27;;;;;;;;;;;;;;;7.88;61.59;100060.00;1087195;54;19947;-79
2023/03/29 04:39:33;;;;;;;;;;;;;;;7.82;61.85;100065.84;1088811;39;20563;-80
2023/03/29 04:40:34;;;;;;;;;;;;;;;7.70;62.62;100074.81;1087018;54;19954;-80
2023/03/29 04:41:38;;;;;;;;;;;;;;;7.68;62.61;100066.09;1087243;54;19942;-78
2023/03/29 04:42:41;;;;;;;;;;;;;;;7.74;62.13;100062.97;1087259;54;19946;-79
2023/03/29 04:43:45;;;;;;;;;;;;;;;7.70;62.79;100066.84;1087196;54;19947;-79
2023/03/29 04:44:49;;;;;;;;;;;;;;;7.68;62.85;100061.66;1087216;54;19956;-80
2023/03/29 04:45:50;;;;;;;;;;;;;;;7.75;62.65;100060.16;1087194;54;19950;-79
2023/03/29 04:46:54;;;;;;;;;;;;;;;7.74;62.40;100058.47;1087565;39;20495;-79
2023/03/29 04:47:55;;;;;;;;;;;;;;;7.78;62.25;100056.41;1087557;39;20591;-79
2023/03/29 04:48:59;;;;;;;;;;;;;;;7.81;62.19;100058.81;1086415;39;20555;-78
2023/03/29 04:50:00;;;;;;;;;;;;;;;7.83;62.18;100054.22;1086395;54;19954;-79
2023/03/29 04:51:04;;;;;;;;;;;;;;;7.80;62.32;100059.78;1086559;39;20372;-79
2023/03/29 04:52:11;;;;;;;;;;;;;;;7.79;62.40;100055.44;1086209;54;19973;-80
2023/03/29 04:53:12;;;;;;;;;;;;;;;7.84;62.43;100053.22;1086296;54;19946;-78
2023/03/29 04:54:22;;;;;;;;;;;;;;;7.84;62.16;100053.22;1086253;54;19988;-80
2023/03/29 04:55:23;;;;;;;;;;;;;;;7.82;62.39;100055.19;1085870;54;19950;-81
2023/03/29 04:56:26;;;;;;;;;;;;;;;7.79;62.63;100052.78;1085601;54;21824;-80
2023/03/29 04:57:28;;;;;;;;;;;;;;;7.77;62.59;100058.22;1086300;54;19950;-79
2023/03/29 04:58:31;;;;;;;;;;;;;;;7.80;62.39;100057.97;1085737;54;19977;-79
2023/03/29 04:59:33;;;;;;;;;;;;;;;7.83;62.47;100058.69;1085455;54;19953;-79
2023/03/29 05:00:36;;;;;;;;;;;;;;;7.80;62.59;100052.63;1085335;54;19981;-80
2023/03/29 05:01:38;;;;;;;;;;;;;;;7.83;62.14;100051.56;1085778;54;19972;-80
2023/03/29 05:02:42;;;;;;;;;;;;;;;7.84;62.22;100042.56;1085613;54;19947;-81
2023/03/29 05:03:43;;;;;;;;;;;;;;;7.87;61.98;100038.84;1086035;54;19950;-80
2023/03/29 05:04:46;;;;;;;;;;;;;;;7.85;62.18;100044.28;1086665;54;19990;-80
2023/03/29 05:05:47;;;;;;;;;;;;;;;7.81;62.46;100050.84;1086378;54;20528;-79
2023/03/29 05:06:51;;;;;;;;;;;;;;;7.80;62.66;100055.28;1086796;54;19949;-80
2023/03/29 05:07:55;;;;;;;;;;;;;;;7.74;62.91;100055.81;1086768;54;20555;-80
2023/03/29 05:08:59;;;;;;;;;;;;;;;7.76;62.57;100055.69;1086241;54;19954;-80
2023/03/29 05:10:01;;;;;;;;;;;;;;;7.84;62.64;100052.41;1086388;54;19949;-80
2023/03/29 05:11:05;;;;;;;;;;;;;;;7.79;62.81;100060.75;1086487;54;19958;-79
2023/03/29 05:12:07;;;;;;;;;;;;;;;7.72;62.54;100060.41;1085729;54;19977;-80
2023/03/29 05:13:11;;;;;;;;;;;;;;;7.72;62.69;100060.41;1086207;54;19973;-80
2023/03/29 05:14:13;;;;;;;;;;;;;;;7.67;63.08;100057.28;1085717;46;19981;-80
2023/03/29 05:15:16;;;;;;;;;;;;;;;7.70;63.10;100051.69;1085670;54;20015;-81
2023/03/29 05:16:20;;;;;;;;;;;;;;;7.76;62.84;100068.97;1085374;54;19946;-80
2023/03/29 05:17:21;;;;;;;;;;;;;;;7.81;62.34;100059.66;1085193;54;19962;-79
2023/03/29 05:18:25;;;;;;;;;;;;;;;7.82;62.42;100060.50;1086714;54;19947;-79
2023/03/29 05:19:26;;;;;;;;;;;;;;;7.68;63.07;100058.13;1086589;54;19951;-80
2023/03/29 05:20:30;;;;;;;;;;;;;;;7.76;62.67;100050.34;1086822;54;19943;-80
2023/03/29 05:21:32;;;;;;;;;;;;;;;7.72;62.56;100056.91;1087191;46;19957;-80
2023/03/29 05:22:37;;;;;;;;;;;;;;;7.73;62.41;100058.59;1086916;54;19950;-79
2023/03/29 05:23:40;;;;;;;;;;;;;;;7.73;62.61;100061.28;1086779;54;19963;-80
2023/03/29 05:24:44;;;;;;;;;;;;;;;7.78;62.18;100053.75;1086372;54;20552;-80
2023/03/29 05:25:46;;;;;;;;;;;;;;;7.83;62.04;100056.03;1086936;46;19947;-81
2023/03/29 05:26:50;;;;;;;;;;;;;;;7.77;62.25;100052.03;1086175;54;20462;-80
2023/03/29 05:27:54;;;;;;;;;;;;;;;7.87;62.39;100054.81;1086252;54;19950;-80
2023/03/29 05:28:56;;;;;;;;;;;;;;;7.76;62.48;100051.22;1086326;54;19982;-80
2023/03/29 05:30:02;;;;;;;;;;;;;;;7.78;62.41;100051.06;1086853;54;19947;-80
2023/03/29 05:31:04;;;;;;;;;;;;;;;7.87;62.60;100046.81;1087090;39;20255;-81
2023/03/29 05:32:08;;;;;;;;;;;;;;;7.88;62.46;100049.34;1087612;46;19951;-80
2023/03/29 05:33:10;;;;;;;;;;;;;;;7.91;62.47;100043.78;1086900;54;19950;-80
2023/03/29 05:34:14;;;;;;;;;;;;;;;7.90;62.40;100049.22;1087381;54;19994;-80